Time;durP1;ratioP1;P1;durP2;ratioP2;P2;SDS_P1;SDS_P2;PMS_P1;PMS_P2;Temp;Humidity;BMP_temperature;BMP_pressure;BME280_temperature;BME280_humidity;BME280_pressure;Samples;Min_cycle;Max_cycle;Signal;HPM_P1;HPM_P2
2022/03/02 00:01:42;;;;;;;;;48.50;38.25;;;;;11.12;43.51;101862.13;5021150;28;46083;-76
2022/03/02 00:04:08;;;;;;;;;46.00;38.00;;;;;10.98;43.17;101860.53;5024005;28;45546;-75
2022/03/02 00:06:34;;;;;;;;;43.50;37.25;;;;;10.93;43.52;101840.59;5030867;28;45500;-77
2022/03/02 00:08:59;;;;;;;;;46.50;37.00;;;;;10.96;43.85;101840.34;5026162;28;45240;-76
2022/03/02 00:11:27;;;;;;;;;33.25;29.25;;;;;10.83;43.75;101831.63;5032275;28;47315;-76
2022/03/02 00:13:53;;;;;;;;;39.67;34.00;;;;;10.96;43.98;101854.50;5027538;28;45320;-76
2022/03/02 00:16:19;;;;;;;;;41.00;34.75;;;;;10.82;44.10;101825.47;5017447;28;45412;-76
2022/03/02 00:18:44;;;;;;;;;48.50;39.00;;;;;10.74;44.08;101821.69;5028434;28;45522;-76
2022/03/02 00:21:10;;;;;;;;;46.75;37.50;;;;;10.81;44.20;101834.41;5034011;28;48458;-76
2022/03/02 00:23:35;;;;;;;;;39.00;34.00;;;;;10.76;44.51;101828.59;5027289;28;46240;-78
2022/03/02 00:26:01;;;;;;;;;44.75;36.50;;;;;10.85;44.30;101827.03;5034584;28;45621;-75
2022/03/02 00:28:27;;;;;;;;;47.00;35.75;;;;;10.77;44.47;101806.34;5031748;28;45641;-76
2022/03/02 00:30:53;;;;;;;;;43.25;36.75;;;;;10.77;44.13;101803.69;5016029;28;45466;-76
2022/03/02 00:33:18;;;;;;;;;48.00;38.50;;;;;10.89;44.61;101831.16;5032714;28;46038;-76
2022/03/02 00:35:44;;;;;;;;;48.50;40.75;;;;;10.80;44.72;101826.53;5031466;28;45548;-76
2022/03/02 00:38:10;;;;;;;;;48.50;38.00;;;;;10.90;44.77;101824.88;5033096;28;45487;-76
2022/03/02 00:40:40;;;;;;;;;49.75;37.75;;;;;10.84;44.57;101817.38;5024359;28;46197;-76
2022/03/02 00:43:07;;;;;;;;;46.75;37.25;;;;;10.85;44.87;101816.41;5021881;28;45452;-75
2022/03/02 00:45:33;;;;;;;;;47.75;37.75;;;;;10.74;44.79;101813.72;5028573;28;45466;-77
2022/03/02 00:48:03;;;;;;;;;47.75;37.50;;;;;10.64;44.70;101819.75;5035170;28;45285;-76
2022/03/02 00:50:29;;;;;;;;;44.00;36.00;;;;;10.58;44.66;101825.53;5026292;28;47673;-75
2022/03/02 00:52:55;;;;;;;;;50.50;38.00;;;;;10.42;44.64;101801.09;5026215;28;45526;-76
2022/03/02 00:55:21;;;;;;;;;47.00;37.50;;;;;10.05;44.65;101726.78;5027718;28;45443;-77
2022/03/02 00:57:47;;;;;;;;;47.00;38.00;;;;;10.59;44.78;101815.75;5018395;28;45691;-75
2022/03/02 01:00:13;;;;;;;;;44.25;37.25;;;;;10.73;44.78;101818.19;5022307;28;46696;-75
2022/03/02 01:02:40;;;;;;;;;49.50;37.75;;;;;10.75;44.38;101826.91;5019359;28;45223;-75
2022/03/02 01:05:07;;;;;;;;;49.25;38.25;;;;;10.68;44.66;101822.19;5017814;28;45305;-75
2022/03/02 01:07:34;;;;;;;;;49.50;39.75;;;;;10.45;44.75;101797.38;5042008;28;45533;-75
2022/03/02 01:10:00;;;;;;;;;50.25;42.00;;;;;10.55;44.62;101808.97;5022922;28;46647;-77
2022/03/02 01:12:27;;;;;;;;;46.75;39.50;;;;;10.57;44.97;101815.84;5053922;28;45336;-76
2022/03/02 01:14:53;;;;;;;;;48.25;39.75;;;;;10.54;44.95;101813.44;5037728;28;45648;-75
2022/03/02 01:17:20;;;;;;;;;46.25;37.50;;;;;10.42;45.04;101798.44;5037697;28;45649;-76
2022/03/02 01:19:46;;;;;;;;;46.00;37.25;;;;;10.50;45.05;101812.00;5037750;28;48463;-77
2022/03/02 01:22:12;;;;;;;;;37.75;33.00;;;;;10.36;45.04;101786.44;5026345;28;45313;-75
2022/03/02 01:24:38;;;;;;;;;45.25;37.00;;;;;10.45;44.88;101806.19;5026306;28;45273;-75
2022/03/02 01:27:04;;;;;;;;;50.75;41.50;;;;;10.37;45.33;101784.63;5033483;28;45343;-77
2022/03/02 01:29:30;;;;;;;;;48.50;39.75;;;;;10.59;45.35;101805.94;5030025;28;45633;-75
2022/03/02 01:31:59;;;;;;;;;47.75;36.50;;;;;10.61;44.85;101804.06;5037330;28;46087;-75
2022/03/02 01:34:24;;;;;;;;;47.25;39.50;;;;;10.54;44.59;101792.16;5037498;28;45341;-75
2022/03/02 01:36:50;;;;;;;;;43.33;36.00;;;;;10.40;44.89;101791.53;5039747;28;45471;-77
2022/03/02 01:39:15;;;;;;;;;49.75;39.25;;;;;10.44;45.02;101785.03;5030613;28;45706;-74
2022/03/02 01:41:40;;;;;;;;;46.25;37.75;;;;;9.89;44.88;101689.06;5032738;28;45901;-75
2022/03/02 01:44:06;;;;;;;;;47.25;37.75;;;;;10.44;45.03;101777.91;5026852;28;45232;-75
2022/03/02 01:46:31;;;;;;;;;50.00;40.50;;;;;10.13;45.26;101734.16;5025763;28;45703;-76
2022/03/02 01:48:57;;;;;;;;;48.00;38.00;;;;;10.45;44.87;101781.41;5028496;28;48217;-74
2022/03/02 01:51:23;;;;;;;;;43.50;38.50;;;;;10.05;44.81;101713.50;5036996;28;46063;-76
2022/03/02 01:53:48;;;;;;;;;45.00;38.00;;;;;10.45;44.76;101779.59;5018425;28;45317;-75
2022/03/02 01:56:15;;;;;;;;;50.25;37.75;;;;;10.40;45.01;101789.72;5019121;28;45354;-76
2022/03/02 01:58:43;;;;;;;;;42.33;36.33;;;;;10.32;45.03;101770.84;5023155;28;48391;-76
2022/03/02 02:01:08;;;;;;;;;47.50;38.50;;;;;10.46;45.04;101780.44;5033546;28;45502;-76
2022/03/02 02:03:34;;;;;;;;;50.75;41.50;;;;;10.31;44.97;101753.22;5025179;28;45475;-75
2022/03/02 02:06:01;;;;;;;;;44.33;36.33;;;;;10.50;45.34;101774.75;5025114;28;45215;-76
2022/03/02 02:08:27;;;;;;;;;48.00;39.75;;;;;10.58;44.59;101777.66;5025028;28;47942;-75
2022/03/02 02:10:55;;;;;;;;;48.50;37.25;;;;;10.61;44.79;101772.13;5025578;28;45290;-75
2022/03/02 02:13:34;;;;;;;;;40.50;36.75;;;;;10.17;44.53;101679.81;5017953;28;45558;-75
2022/03/02 02:16:01;;;;;;;;;43.25;33.75;;;;;10.70;44.47;101753.75;5027328;28;45476;-76
2022/03/02 02:18:40;;;;;;;;;49.00;38.75;;;;;10.42;44.09;101709.88;5020818;28;47662;-75
2022/03/02 02:21:08;;;;;;;;;47.75;38.00;;;;;10.68;43.87;101755.69;5026996;28;45620;-78
2022/03/02 02:23:38;;;;;;;;;44.25;38.50;;;;;10.50;44.49;101737.53;5021547;28;46796;-76
2022/03/02 02:26:05;;;;;;;;;44.50;37.75;;;;;10.51;44.32;101749.03;5035958;28;45576;-76
2022/03/02 02:28:32;;;;;;;;;42.25;36.75;;;;;10.21;44.85;101713.22;5017909;28;46697;-74
2022/03/02 02:30:59;;;;;;;;;43.75;37.00;;;;;10.27;44.67;101717.22;5020391;28;45321;-74
2022/03/02 02:33:25;;;;;;;;;43.75;36.00;;;;;10.42;44.46;101728.47;5042577;28;45255;-75
2022/03/02 02:35:51;;;;;;;;;55.25;42.50;;;;;10.42;44.56;101724.00;5033563;28;45555;-76
2022/03/02 02:38:18;;;;;;;;;44.25;37.00;;;;;10.45;44.47;101731.75;5029303;28;48806;-76
2022/03/02 02:40:44;;;;;;;;;39.25;34.00;;;;;10.39;44.79;101718.06;5025166;28;46549;-76
2022/03/02 02:43:09;;;;;;;;;45.25;37.75;;;;;10.29;45.11;101696.69;5028115;28;45429;-75
2022/03/02 02:45:35;;;;;;;;;46.50;39.25;;;;;10.40;44.99;101717.09;5033981;28;45392;-75
2022/03/02 02:48:01;;;;;;;;;46.50;36.75;;;;;10.40;44.55;101725.06;5017514;28;45552;-75
2022/03/02 02:50:29;;;;;;;;;50.25;39.75;;;;;10.41;44.45;101716.13;5015580;28;45980;-77
2022/03/02 02:52:58;;;;;;;;;47.00;37.75;;;;;10.41;44.73;101711.69;5019873;28;45355;-76
2022/03/02 02:55:25;;;;;;;;;50.25;38.75;;;;;10.37;44.75;101702.22;5032992;28;45459;-76
2022/03/02 02:57:52;;;;;;;;;50.25;42.25;;;;;10.32;45.16;101697.28;5034954;28;47680;-76
2022/03/02 03:00:20;;;;;;;;;48.00;39.50;;;;;9.97;45.71;101657.44;5035852;28;45345;-75
2022/03/02 03:02:51;;;;;;;;;50.00;38.50;;;;;10.18;45.72;101691.28;5024796;28;45318;-76
2022/03/02 03:05:20;;;;;;;;;46.50;36.75;;;;;10.09;45.69;101681.38;5017969;28;45430;-75
2022/03/02 03:07:46;;;;;;;;;47.25;38.75;;;;;10.20;45.63;101686.72;5020298;28;47892;-75
2022/03/02 03:10:13;;;;;;;;;46.75;38.25;;;;;10.21;45.50;101686.66;5026887;28;45273;-74
2022/03/02 03:12:39;;;;;;;;;46.50;38.50;;;;;10.21;45.44;101675.16;5036665;28;45556;-76
2022/03/02 03:15:07;;;;;;;;;51.75;40.00;;;;;10.26;45.21;101678.31;5028648;28;45402;-75
2022/03/02 03:17:33;;;;;;;;;49.50;40.25;;;;;10.14;45.32;101676.56;5036573;28;46394;-76
2022/03/02 03:19:59;;;;;;;;;50.00;40.75;;;;;10.12;45.17;101667.88;5032006;28;46111;-76
2022/03/02 03:22:24;;;;;;;;;47.50;38.25;;;;;10.11;45.40;101677.66;5018308;28;45444;-75
2022/03/02 03:24:50;;;;;;;;;45.50;37.25;;;;;10.16;45.59;101686.09;5015749;28;45534;-75
2022/03/02 03:27:15;;;;;;;;;42.75;37.00;;;;;10.01;45.31;101674.00;5026985;28;46396;-75
2022/03/02 03:29:41;;;;;;;;;48.75;39.50;;;;;10.13;45.27;101690.81;5023748;28;45259;-74
2022/03/02 03:32:07;;;;;;;;;50.00;39.75;;;;;10.14;45.24;101684.53;5027945;28;45610;-76
2022/03/02 03:34:33;;;;;;;;;50.00;39.50;;;;;10.21;45.25;101693.75;5024487;28;45203;-76
2022/03/02 03:36:58;;;;;;;;;46.50;37.75;;;;;10.29;45.20;101683.38;5016736;28;46422;-76
2022/03/02 03:39:24;;;;;;;;;42.75;36.75;;;;;10.33;44.99;101684.84;5031233;28;45568;-75
2022/03/02 03:41:49;;;;;;;;;45.00;37.50;;;;;10.40;45.13;101678.06;5016992;28;45426;-76
2022/03/02 03:44:15;;;;;;;;;49.00;40.75;;;;;10.09;45.07;101647.69;5033325;28;45438;-75
2022/03/02 03:46:41;;;;;;;;;49.50;39.50;;;;;10.22;44.98;101676.88;5032833;28;46913;-76
2022/03/02 03:49:06;;;;;;;;;50.75;40.75;;;;;10.06;45.25;101632.00;5021208;28;45317;-75
2022/03/02 03:51:33;;;;;;;;;47.50;41.00;;;;;10.23;44.94;101649.31;5032818;28;45534;-74
2022/03/02 03:53:59;;;;;;;;;48.00;36.50;;;;;10.24;45.38;101666.97;5048871;28;45348;-75
2022/03/02 03:56:25;;;;;;;;;52.00;39.75;;;;;10.13;45.29;101640.31;5031116;28;45403;-75
2022/03/02 03:58:50;;;;;;;;;48.50;40.75;;;;;9.97;44.56;101606.13;5027063;28;45490;-75
2022/03/02 04:01:16;;;;;;;;;39.75;34.25;;;;;10.27;44.87;101658.75;5024162;28;45263;-76
2022/03/02 04:03:42;;;;;;;;;39.25;34.50;;;;;9.73;44.79;101579.66;5025094;28;45572;-76
2022/03/02 04:06:07;;;;;;;;;44.00;37.00;;;;;10.25;44.76;101653.56;5017096;28;45994;-74
2022/03/02 04:08:33;;;;;;;;;48.00;38.50;;;;;10.19;45.03;101642.50;5024312;28;45540;-77
2022/03/02 04:10:59;;;;;;;;;45.75;38.00;;;;;10.20;44.95;101646.84;5049556;28;45275;-77
2022/03/02 04:13:25;;;;;;;;;40.75;36.25;;;;;10.21;45.12;101649.44;5028732;28;45585;-74
2022/03/02 04:15:50;;;;;;;;;50.00;39.00;;;;;10.27;44.62;101672.03;5032409;28;47707;-76
2022/03/02 04:18:16;;;;;;;;;45.25;37.75;;;;;10.23;45.14;101662.63;5019417;28;45455;-75
2022/03/02 04:20:42;;;;;;;;;49.75;40.00;;;;;9.88;44.71;101598.88;5032075;28;45629;-75
2022/03/02 04:23:08;;;;;;;;;45.75;38.00;;;;;10.20;44.75;101657.47;5037542;28;45558;-77
2022/03/02 04:25:34;;;;;;;;;44.25;37.00;;;;;10.17;44.88;101658.56;5038603;28;47232;-74
2022/03/02 04:27:59;;;;;;;;;50.25;37.50;;;;;10.23;45.10;101665.28;5023562;28;45522;-79
2022/03/02 04:30:27;;;;;;;;;47.25;39.00;;;;;10.04;45.16;101645.41;5039887;28;45664;-76
2022/03/02 04:32:53;;;;;;;;;46.25;38.25;;;;;9.64;45.12;101589.19;5039850;28;45589;-77
2022/03/02 04:35:21;;;;;;;;;44.75;38.00;;;;;9.34;44.99;101533.13;5036325;28;47510;-74
2022/03/02 04:37:46;;;;;;;;;47.75;40.50;;;;;9.96;45.36;101642.47;5024043;28;45329;-75
2022/03/02 04:40:13;;;;;;;;;47.50;39.00;;;;;9.69;44.89;101605.59;5038481;28;45336;-75
2022/03/02 04:42:39;;;;;;;;;46.50;37.50;;;;;9.86;45.29;101641.50;5036268;28;45598;-76
2022/03/02 04:45:27;;;;;;;;;54.75;43.50;;;;;9.42;45.31;101554.63;5038096;28;47918;-77
2022/03/02 04:47:56;;;;;;;;;49.25;40.00;;;;;9.88;45.12;101650.19;5032037;28;45456;-77
2022/03/02 04:50:22;;;;;;;;;48.50;39.25;;;;;9.83;44.90;101633.78;5034756;28;45451;-76
2022/03/02 04:52:53;;;;;;;;;45.25;37.25;;;;;9.34;45.26;101554.34;5026791;28;45387;-77
2022/03/02 04:55:18;;;;;;;;;48.00;39.25;;;;;9.64;45.35;101602.47;5026972;28;47923;-76
2022/03/02 04:57:52;;;;;;;;;43.00;36.50;;;;;9.66;45.60;101597.03;5035248;28;45591;-75
2022/03/02 05:00:19;;;;;;;;;49.75;40.50;;;;;9.12;45.47;101508.22;5025827;28;45312;-76
2022/03/02 05:02:45;;;;;;;;;42.75;36.00;;;;;9.79;45.11;101611.03;5019527;28;45553;-76
2022/03/02 05:05:13;;;;;;;;;40.50;35.00;;;;;9.78;45.19;101604.03;5027268;28;46119;-75
2022/03/02 05:07:40;;;;;;;;;49.50;37.75;;;;;9.87;45.29;101618.44;5021011;28;45698;-79
2022/03/02 05:10:06;;;;;;;;;52.50;40.00;;;;;9.72;44.95;101596.56;5020694;28;45511;-76
2022/03/02 05:12:33;;;;;;;;;44.75;37.00;;;;;9.67;45.19;101598.72;5018108;28;45595;-76
2022/03/02 05:14:58;;;;;;;;;43.00;35.50;;;;;9.79;45.10;101623.47;5029695;28;47624;-77
2022/03/02 05:17:24;;;;;;;;;44.00;37.00;;;;;9.79;45.38;101618.16;5023254;28;45556;-76
2022/03/02 05:19:50;;;;;;;;;45.50;37.75;;;;;9.67;44.87;101593.41;5035349;28;45611;-76
2022/03/02 05:22:16;;;;;;;;;51.00;40.75;;;;;9.77;45.41;101613.81;5017876;28;45502;-76
2022/03/02 05:24:42;;;;;;;;;46.75;38.25;;;;;9.79;45.39;101620.81;5042094;28;47335;-76
2022/03/02 05:27:26;;;;;;;;;29.00;27.75;;;;;9.65;45.13;101598.00;5026883;28;45277;-75
2022/03/02 05:29:51;;;;;;;;;48.50;38.00;;;;;9.69;45.53;101615.38;5025607;28;46142;-74
2022/03/02 05:32:17;;;;;;;;;47.50;38.00;;;;;9.48;45.81;101574.53;5031302;28;45288;-75
2022/03/02 05:34:43;;;;;;;;;45.25;38.00;;;;;9.74;45.64;101599.94;5019554;28;47264;-76
2022/03/02 05:37:09;;;;;;;;;48.00;38.33;;;;;9.85;45.36;101605.28;5026313;28;46364;-76
2022/03/02 05:39:35;;;;;;;;;48.00;40.67;;;;;9.72;45.24;101572.66;5037979;28;45249;-75
2022/03/02 05:42:01;;;;;;;;;43.75;36.50;;;;;9.25;45.33;101502.84;5019933;28;45521;-77
2022/03/02 05:44:26;;;;;;;;;50.50;40.00;;;;;9.71;45.21;101578.94;5024549;28;45257;-75
2022/03/02 05:46:52;;;;;;;;;44.00;36.25;;;;;9.80;45.41;101602.13;5018004;28;45461;-77
2022/03/02 05:49:17;;;;;;;;;47.75;40.00;;;;;9.65;45.61;101595.34;5030466;28;45240;-76
2022/03/02 05:51:43;;;;;;;;;47.75;39.50;;;;;9.62;45.87;101595.59;5033960;28;45238;-76
2022/03/02 05:54:10;;;;;;;;;44.00;35.75;;;;;9.51;45.94;101588.41;5033816;28;48472;-75
2022/03/02 05:56:39;;;;;;;;;43.00;36.25;;;;;9.55;45.94;101589.03;5017130;28;45690;-74
2022/03/02 05:59:06;;;;;;;;;53.75;40.25;;;;;9.37;46.28;101562.91;5020061;28;45170;-77
2022/03/02 06:01:33;;;;;;;;;49.33;40.00;;;;;9.60;45.69;101585.06;5036702;28;45638;-75
2022/03/02 06:03:58;;;;;;;;;49.75;40.50;;;;;9.23;46.07;101530.44;5037250;28;46340;-76
2022/03/02 06:06:24;;;;;;;;;43.75;37.00;;;;;9.59;46.02;101599.28;5025732;28;45684;-76
2022/03/02 06:08:50;;;;;;;;;49.00;36.75;;;;;9.59;46.07;101606.41;5026971;28;45559;-76
2022/03/02 06:11:16;;;;;;;;;49.50;41.00;;;;;9.59;45.94;101591.31;5035889;28;45920;-76
2022/03/02 06:13:42;;;;;;;;;41.75;36.25;;;;;9.57;45.92;101592.41;5032910;28;48190;-77
2022/03/02 06:16:07;;;;;;;;;47.75;38.25;;;;;9.61;45.61;101594.75;5033881;28;45404;-75
2022/03/02 06:18:33;;;;;;;;;42.75;37.50;;;;;9.71;46.10;101605.50;5033112;28;45425;-78
2022/03/02 06:21:01;;;;;;;;;36.50;32.50;;;;;9.59;45.98;101579.88;5033231;28;45623;-76
2022/03/02 06:23:28;;;;;;;;;47.50;39.25;;;;;9.60;45.90;101576.25;5021220;28;46578;-76
2022/03/02 06:25:55;;;;;;;;;48.50;37.75;;;;;9.64;45.76;101583.03;5035928;28;46232;-77
2022/03/02 06:28:21;;;;;;;;;43.25;36.50;;;;;9.25;45.79;101518.75;5026029;28;46158;-75
2022/03/02 06:30:47;;;;;;;;;48.00;38.25;;;;;9.72;45.89;101599.22;5025556;28;45389;-77
2022/03/02 06:33:16;;;;;;;;;34.50;31.00;;;;;9.57;45.73;101595.91;5041357;28;46869;-78
2022/03/02 06:35:41;;;;;;;;;53.25;42.00;;;;;9.48;45.84;101577.19;5022286;28;45237;-76
2022/03/02 06:38:07;;;;;;;;;43.00;37.00;;;;;9.43;46.42;101581.06;5020077;28;45315;-75
2022/03/02 06:40:32;;;;;;;;;49.75;41.25;;;;;9.42;46.35;101581.16;5029227;28;45564;-78
2022/03/02 06:43:08;;;;;;;;;49.00;40.50;;;;;9.50;46.28;101594.69;5031187;28;47364;-74
2022/03/02 06:45:56;;;;;;;;;43.75;37.25;;;;;9.39;46.62;101600.78;5020097;28;45489;-77
2022/03/02 06:48:36;;;;;;;;;46.00;38.00;;;;;9.40;46.20;101605.16;5034632;28;45443;-75
2022/03/02 06:51:03;;;;;;;;;43.75;37.50;;;;;9.37;46.78;101602.72;5016999;28;46101;-75
2022/03/02 06:53:35;;;;;;;;;43.50;36.25;;;;;9.43;46.51;101596.97;5040480;28;47941;-76
2022/03/02 06:56:04;;;;;;;;;50.00;39.75;;;;;9.58;46.63;101612.69;5024676;28;46056;-75
2022/03/02 06:58:54;;;;;;;;;47.25;40.00;;;;;9.46;46.16;101582.63;5027512;28;45438;-74
2022/03/02 07:01:27;;;;;;;;;46.00;40.00;;;;;9.61;45.92;101607.13;5036406;28;45584;-75
2022/03/02 07:03:58;;;;;;;;;99.25;83.50;;;;;9.19;47.05;101532.47;5031577;28;48179;-77
2022/03/02 07:06:25;;;;;;;;;53.00;44.00;;;;;9.66;46.15;101607.66;5032160;28;45491;-75
2022/03/02 07:08:54;;;;;;;;;49.50;40.50;;;;;9.52;46.34;101584.81;5032981;28;45268;-76
2022/03/02 07:11:21;;;;;;;;;52.75;41.50;;;;;9.50;46.11;101617.75;5035323;28;45399;-76
2022/03/02 07:13:48;;;;;;;;;50.75;36.25;;;;;8.29;46.34;101398.69;5035009;28;47819;-77
2022/03/02 07:16:18;;;;;;;;;50.00;38.75;;;;;9.33;46.14;101571.22;5040904;28;45567;-76
2022/03/02 07:18:45;;;;;;;;;52.25;42.25;;;;;9.44;46.54;101608.44;5036529;28;45367;-76
2022/03/02 07:21:21;;;;;;;;;51.00;40.50;;;;;9.37;46.17;101593.91;5027124;28;46048;-76
2022/03/02 07:23:55;;;;;;;;;42.00;35.67;;;;;9.56;46.61;101612.81;5035529;28;47328;-76
2022/03/02 07:26:23;;;;;;;;;52.75;40.75;;;;;9.15;45.81;101546.94;5030552;28;45185;-76
2022/03/02 07:28:49;;;;;;;;;42.00;35.50;;;;;9.65;45.73;101621.91;5029041;28;45252;-78
2022/03/02 07:31:17;;;;;;;;;49.50;40.75;;;;;9.46;45.82;101579.97;5023568;28;45617;-76
2022/03/02 07:33:45;;;;;;;;;48.00;40.75;;;;;9.71;45.57;101613.44;5031633;28;47073;-76
2022/03/02 07:36:11;;;;;;;;;50.25;40.75;;;;;9.54;45.94;101572.25;5024676;28;45410;-73
2022/03/02 07:38:39;;;;;;;;;42.25;37.00;;;;;9.88;45.46;101618.31;5023452;28;45588;-76
2022/03/02 07:41:09;;;;;;;;;43.50;35.25;;;;;9.70;45.62;101607.28;5019774;28;45519;-76
2022/03/02 07:43:39;;;;;;;;;49.00;38.75;;;;;9.65;45.85;101612.13;5020162;28;45837;-77
2022/03/02 07:46:06;;;;;;;;;47.25;37.50;;;;;9.69;46.02;101612.72;5031227;28;45787;-76
2022/03/02 07:48:32;;;;;;;;;46.50;38.50;;;;;9.69;45.79;101591.47;5015493;28;45336;-76
2022/03/02 07:51:00;;;;;;;;;47.00;40.25;;;;;9.93;45.80;101610.84;5035292;28;45370;-78
2022/03/02 07:53:31;;;;;;;;;281.75;241.75;;;;;9.96;46.33;101607.94;5044669;28;47705;-75
2022/03/02 07:56:01;;;;;;;;;59.75;47.50;;;;;10.07;45.81;101607.97;5032457;28;45379;-75
2022/03/02 07:58:27;;;;;;;;;48.50;38.25;;;;;10.03;45.28;101581.75;5035558;28;45429;-77
2022/03/02 08:00:54;;;;;;;;;51.25;42.50;;;;;10.22;45.50;101597.13;5030713;28;45544;-75
2022/03/02 08:03:27;;;;;;;;;51.50;41.00;;;;;10.17;45.28;101580.66;5031355;28;48204;-74
2022/03/02 08:05:58;;;;;;;;;53.25;43.00;;;;;10.30;45.74;101597.38;5032395;28;45280;-76
2022/03/02 08:08:25;;;;;;;;;50.75;38.00;;;;;10.39;45.03;101606.41;5034845;28;45507;-78
2022/03/02 08:10:52;;;;;;;;;54.00;41.75;;;;;9.80;45.03;101519.78;5020446;28;45353;-78
2022/03/02 08:13:18;;;;;;;;;47.75;38.00;;;;;10.15;45.40;101598.53;5041172;28;46909;-74
2022/03/02 08:15:44;;;;;;;;;47.25;39.25;;;;;10.19;45.57;101600.81;5040015;28;45457;-76
2022/03/02 08:18:10;;;;;;;;;47.50;40.00;;;;;10.34;45.63;101609.44;5029602;28;45505;-78
2022/03/02 08:20:48;;;;;;;;;137.50;124.75;;;;;10.46;45.30;101589.88;5020551;28;45467;-79
2022/03/02 08:23:17;;;;;;;;;42.00;36.50;;;;;10.38;44.57;101559.53;5023688;28;45515;-76
2022/03/02 08:25:43;;;;;;;;;46.75;36.50;;;;;10.59;44.66;101585.25;5037805;28;45556;-77
2022/03/02 08:28:09;;;;;;;;;45.25;39.25;;;;;10.82;44.56;101593.19;5032168;28;45185;-76
2022/03/02 08:30:37;;;;;;;;;45.67;38.00;;;;;10.84;44.30;101584.13;5031519;28;45455;-75
2022/03/02 08:33:04;;;;;;;;;48.75;40.00;;;;;10.66;43.70;101530.59;5037912;28;46672;-78
2022/03/02 08:35:35;;;;;;;;;43.50;35.50;;;;;11.13;43.63;101600.34;5034291;28;45410;-77
2022/03/02 08:38:02;;;;;;;;;47.25;39.00;;;;;11.08;43.00;101569.78;5037045;28;45319;-77
2022/03/02 08:40:28;;;;;;;;;50.25;40.00;;;;;11.04;43.40;101590.47;5032498;28;45364;-77
2022/03/02 08:42:55;;;;;;;;;36.75;32.25;;;;;11.13;43.55;101602.16;5030882;28;48310;-75
2022/03/02 08:45:21;;;;;;;;;35.75;33.00;;;;;11.24;42.56;101620.75;5038189;28;46329;-76
2022/03/02 08:47:47;;;;;;;;;49.25;37.00;;;;;11.03;43.08;101580.81;5031337;28;45634;-78
2022/03/02 08:50:12;;;;;;;;;44.50;36.50;;;;;11.26;42.61;101613.50;5032132;28;45400;-77
2022/03/02 08:52:38;;;;;;;;;48.75;40.00;;;;;11.29;42.60;101607.91;5038591;28;47630;-78
2022/03/02 08:55:10;;;;;;;;;46.75;37.50;;;;;11.28;42.44;101591.09;5021099;28;45195;-77
2022/03/02 08:57:41;;;;;;;;;47.25;40.25;;;;;10.91;42.42;101573.81;5055066;28;45322;-78
2022/03/02 09:00:07;;;;;;;;;48.25;39.25;;;;;11.12;43.13;101609.31;5031687;28;45509;-76
2022/03/02 09:02:35;;;;;;;;;49.75;41.00;;;;;11.07;42.79;101576.91;5037064;28;47102;-76
2022/03/02 09:05:04;;;;;;;;;48.50;39.25;;;;;11.37;42.33;101596.59;5028604;28;45568;-79
2022/03/02 09:07:29;;;;;;;;;48.00;39.00;;;;;11.31;41.86;101555.38;5018110;28;45554;-79
2022/03/02 09:09:59;;;;;;;;;94.25;83.25;;;;;10.77;41.95;101451.75;5028336;28;45431;-77
2022/03/02 09:12:25;;;;;;;;;48.00;40.00;;;;;11.50;41.65;101575.97;5020026;28;48476;-77
2022/03/02 09:14:50;;;;;;;;;50.75;39.00;;;;;11.71;41.48;101590.13;5037912;28;45477;-78
2022/03/02 09:17:25;;;;;;;;;49.25;40.75;;;;;11.87;41.43;101601.22;5018438;28;45386;-76
2022/03/02 09:19:56;;;;;;;;;53.75;41.00;;;;;11.94;41.25;101582.03;5018274;28;45539;-74
2022/03/02 09:22:23;;;;;;;;;48.25;41.25;;;;;11.95;40.99;101591.69;5019595;28;45441;-78
2022/03/02 09:24:52;;;;;;;;;51.25;42.00;;;;;11.95;40.99;101589.03;5017425;28;45610;-77
2022/03/02 09:27:21;;;;;;;;;48.75;38.25;;;;;11.88;40.60;101584.25;5020172;28;45545;-77
2022/03/02 09:29:49;;;;;;;;;48.25;39.25;;;;;11.80;40.48;101570.72;5018316;28;45519;-76
2022/03/02 09:32:15;;;;;;;;;48.00;38.50;;;;;11.84;40.56;101572.16;5045339;28;47068;-77
2022/03/02 09:34:45;;;;;;;;;46.50;37.00;;;;;11.81;39.74;101564.44;5033398;28;45211;-79
2022/03/02 09:37:14;;;;;;;;;45.25;36.75;;;;;11.84;39.83;101574.84;5025341;28;45423;-74
2022/03/02 09:39:40;;;;;;;;;44.25;35.50;;;;;11.74;39.89;101584.53;5025248;28;45261;-75
2022/03/02 09:42:14;;;;;;;;;46.50;39.50;;;;;11.76;40.14;101587.06;5038763;28;45508;-78
2022/03/02 09:44:42;;;;;;;;;46.75;36.75;;;;;11.75;39.94;101596.88;5027524;28;45538;-75
2022/03/02 09:47:09;;;;;;;;;51.33;39.00;;;;;11.67;40.11;101570.06;5029621;28;45483;-77
2022/03/02 09:49:37;;;;;;;;;49.00;34.75;;;;;11.73;40.35;101585.53;5029779;28;45426;-77
2022/03/02 09:52:06;;;;;;;;;49.00;39.75;;;;;11.62;40.69;101572.28;5037204;28;48106;-76
2022/03/02 09:54:37;;;;;;;;;44.50;36.50;;;;;11.70;40.57;101579.63;5036549;28;45221;-78
2022/03/02 09:57:06;;;;;;;;;43.25;36.00;;;;;11.62;40.16;101576.78;5037040;28;45421;-77
2022/03/02 09:59:38;;;;;;;;;47.75;40.00;;;;;11.62;40.48;101577.63;5031087;28;45561;-78
2022/03/02 10:02:08;;;;;;;;;47.25;36.50;;;;;11.45;41.08;101555.06;5035061;28;47336;-77
2022/03/02 10:04:35;;;;;;;;;49.75;39.75;;;;;11.49;40.46;101537.84;5033599;28;46071;-77
2022/03/02 10:10:10;;;;;;;;;49.25;39.25;;;;;11.84;39.97;101574.84;5024104;28;45356;-78
2022/03/02 10:12:37;;;;;;;;;43.00;36.25;;;;;11.74;39.98;101549.06;5034263;28;48035;-78
2022/03/02 10:15:06;;;;;;;;;49.50;40.75;;;;;11.84;39.87;101566.84;5031728;28;45267;-76
2022/03/02 10:17:41;;;;;;;;;50.75;40.00;;;;;11.83;40.20;101556.31;5036587;28;45546;-77
2022/03/02 10:20:13;;;;;;;;;50.25;40.50;;;;;12.12;40.34;101575.09;5031828;28;45218;-75
2022/03/02 10:23:08;;;;;;;;;47.50;39.50;;;;;12.29;40.04;101555.81;5035202;28;47257;-77
2022/03/02 10:26:06;;;;;;;;;41.25;35.75;;;;;12.36;39.71;101550.75;5035106;28;46035;-77
2022/03/02 10:28:46;;;;;;;;;49.75;39.00;;;;;12.30;39.45;101533.50;5021056;28;45311;-73
2022/03/02 10:31:30;;;;;;;;;49.25;40.00;;;;;12.10;39.54;101471.28;5033052;28;45309;-77
2022/03/02 10:34:01;;;;;;;;;50.75;41.25;;;;;12.57;38.67;101519.50;5031886;28;47744;-78
2022/03/02 10:36:29;;;;;;;;;47.67;39.00;;;;;12.41;38.20;101476.53;5025167;28;45340;-76
2022/03/02 10:39:00;;;;;;;;;47.25;39.00;;;;;12.92;38.54;101555.50;5025002;28;45542;-77
2022/03/02 10:41:28;;;;;;;;;48.75;38.25;;;;;12.78;38.51;101519.41;5025044;28;45575;-79
2022/03/02 10:44:01;;;;;;;;;50.25;39.75;;;;;12.99;38.08;101517.44;5033165;28;46787;-77
2022/03/02 10:46:28;;;;;;;;;50.00;40.00;;;;;12.95;38.10;101484.00;5026326;28;45423;-75
2022/03/02 10:49:11;;;;;;;;;49.00;39.75;;;;;13.44;37.71;101538.25;5035978;28;45411;-79
2022/03/02 10:51:38;;;;;;;;;52.00;41.00;;;;;12.74;37.14;101413.94;5027918;28;45512;-77
2022/03/02 10:54:07;;;;;;;;;49.00;39.50;;;;;13.38;37.38;101528.13;5020818;28;47298;-78
2022/03/02 10:56:38;;;;;;;;;48.25;40.50;;;;;13.28;37.37;101540.66;5034475;28;46024;-75
2022/03/02 10:59:10;;;;;;;;;53.00;42.00;;;;;13.04;37.69;101499.19;5036382;28;45612;-76
2022/03/02 11:01:36;;;;;;;;;49.25;40.00;;;;;13.22;37.64;101527.88;5035036;28;45441;-76
2022/03/02 11:04:05;;;;;;;;;49.75;39.75;;;;;13.48;37.91;101523.59;5025860;28;46119;-77
2022/03/02 11:06:35;;;;;;;;;53.00;41.25;;;;;13.58;37.37;101513.72;5025753;28;45496;-77
2022/03/02 11:09:02;;;;;;;;;52.25;40.50;;;;;13.77;36.79;101517.34;5032605;28;45340;-78
2022/03/02 11:11:37;;;;;;;;;45.00;37.75;;;;;13.86;36.42;101516.47;5033009;28;45324;-78
2022/03/02 11:14:04;;;;;;;;;42.00;36.67;;;;;13.79;36.37;101515.34;5031742;28;48081;-77
2022/03/02 11:16:31;;;;;;;;;47.00;38.50;;;;;13.89;36.08;101516.19;5018038;28;45430;-78
2022/03/02 11:19:09;;;;;;;;;47.50;38.50;;;;;13.68;36.14;101476.31;5020082;28;45509;-76